Time;durP1;ratioP1;P1;durP2;ratioP2;P2;SDS_P1;SDS_P2;PMS_P1;PMS_P2;Temp;Humidity;BMP_temperature;BMP_pressure;BME280_temperature;BME280_humidity;BME280_pressure;Samples;Min_cycle;Max_cycle;Signal;HPM_P1;HPM_P2
2023/04/09 18:23:47;;;;;;;11.63;7.13;;;15.10;65.80;;;;;;5108939;27;20315;-65
2023/04/09 18:26:12;;;;;;;10.68;6.57;;;14.60;67.80;;;;;;5110000;28;20506;-65
2023/04/09 18:28:38;;;;;;;12.38;7.32;;;14.50;69.60;;;;;;5109767;28;20020;-65
2023/04/09 18:31:04;;;;;;;12.45;7.30;;;14.40;70.40;;;;;;5109315;28;20032;-64
2023/04/09 18:33:30;;;;;;;13.02;7.80;;;14.30;71.00;;;;;;5109605;28;20019;-65
2023/04/09 18:35:59;;;;;;;11.65;7.03;;;14.30;71.50;;;;;;5108435;28;20104;-65
2023/04/09 18:38:27;;;;;;;11.20;7.05;;;14.20;71.90;;;;;;5108550;28;20107;-65
2023/04/09 18:40:52;;;;;;;14.93;8.43;;;14.10;72.40;;;;;;5109462;28;20077;-64
2023/04/09 18:43:18;;;;;;;12.15;7.60;;;14.00;72.80;;;;;;5107676;28;20027;-64
2023/04/09 18:45:44;;;;;;;13.70;7.50;;;14.00;73.20;;;;;;5107952;28;20019;-65
2023/04/09 18:48:09;;;;;;;12.40;7.45;;;13.90;73.60;;;;;;5109672;28;20035;-65
2023/04/09 18:50:35;;;;;;;13.68;8.57;;;13.80;74.30;;;;;;5108748;28;20434;-65
2023/04/09 18:53:02;;;;;;;12.05;7.25;;;13.80;74.60;;;;;;5108424;28;20019;-65
2023/04/09 18:55:28;;;;;;;13.50;8.40;;;13.70;74.90;;;;;;5107458;28;20020;-65
2023/04/09 18:57:53;;;;;;;13.80;7.88;;;13.60;75.50;;;;;;5108521;28;20492;-65
2023/04/09 19:00:19;;;;;;;12.82;7.80;;;13.50;75.90;;;;;;5109576;28;20371;-65
2023/04/09 19:02:44;;;;;;;12.50;8.13;;;13.50;76.40;;;;;;5109051;28;20385;-65
2023/04/09 19:05:10;;;;;;;15.30;9.27;;;13.40;76.80;;;;;;5108696;28;20488;-65
2023/04/09 19:07:36;;;;;;;19.45;12.02;;;13.40;77.30;;;;;;5109334;28;20095;-65
2023/04/09 19:10:02;;;;;;;19.13;11.63;;;13.30;77.80;;;;;;5108720;28;20368;-66
2023/04/09 19:12:28;;;;;;;14.02;8.77;;;13.20;78.60;;;;;;5108318;28;20468;-65
2023/04/09 19:14:53;;;;;;;14.60;9.05;;;13.00;79.30;;;;;;5108929;28;20028;-65
2023/04/09 19:17:19;;;;;;;13.75;8.40;;;12.90;80.00;;;;;;5107264;28;20020;-64
2023/04/09 19:19:45;;;;;;;13.65;9.00;;;12.90;80.40;;;;;;5108087;28;20107;-64
2023/04/09 19:22:10;;;;;;;14.77;8.52;;;12.80;80.90;;;;;;5107042;28;20036;-65
2023/04/09 19:24:36;;;;;;;15.00;7.75;;;12.70;81.40;;;;;;5108537;28;20099;-64
2023/04/09 19:27:08;;;;;;;12.60;8.15;;;12.70;81.80;;;;;;5108993;28;20031;-65
2023/04/09 19:29:35;;;;;;;15.98;9.77;;;12.60;82.30;;;;;;5108994;28;20107;-65
2023/04/09 19:32:01;;;;;;;12.82;8.25;;;12.60;83.00;;;;;;5108363;28;20541;-64
2023/04/09 19:34:27;;;;;;;15.38;8.70;;;12.50;83.40;;;;;;5098198;28;20073;-64
2023/04/09 19:36:52;;;;;;;15.85;9.38;;;12.50;83.30;;;;;;5095182;28;20426;-64
2023/04/09 19:39:18;;;;;;;14.43;8.90;;;12.30;83.60;;;;;;5095226;28;20024;-64
2023/04/09 19:41:44;;;;;;;14.50;8.82;;;12.20;84.40;;;;;;5093040;28;20027;-62
2023/04/09 19:44:10;;;;;;;15.77;9.90;;;12.10;85.00;;;;;;5095567;28;20491;-63
2023/04/09 19:46:35;;;;;;;17.05;8.48;;;11.90;86.10;;;;;;5093736;28;20024;-63
2023/04/09 19:49:01;;;;;;;15.45;9.40;;;11.90;86.80;;;;;;5075719;28;20029;-64
2023/04/09 19:51:27;;;;;;;15.50;9.55;;;11.80;87.30;;;;;;5094729;28;20053;-64
2023/04/09 19:53:53;;;;;;;13.27;8.35;;;11.80;88.10;;;;;;5093048;28;20024;-64
2023/04/09 19:56:19;;;;;;;13.77;9.32;;;11.70;88.60;;;;;;5094601;28;20024;-64
2023/04/09 19:58:45;;;;;;;16.48;9.73;;;11.70;89.70;;;;;;5091541;28;20024;-64
2023/04/09 20:01:11;;;;;;;14.38;8.95;;;11.60;89.40;;;;;;5094500;28;20023;-63
2023/04/09 20:03:37;;;;;;;16.05;9.50;;;11.60;89.80;;;;;;5094482;28;20044;-64
2023/04/09 20:06:09;;;;;;;16.30;9.55;;;11.60;90.00;;;;;;5094536;28;20020;-64
2023/04/09 20:08:36;;;;;;;17.02;10.27;;;11.50;90.20;;;;;;5093713;28;20036;-63
2023/04/09 20:11:02;;;;;;;16.08;9.30;;;11.50;90.40;;;;;;5094202;28;20069;-63
2023/04/09 20:13:27;;;;;;;15.73;9.15;;;11.40;90.70;;;;;;5094373;28;20031;-63
2023/04/09 20:15:53;;;;;;;14.82;9.63;;;11.30;90.90;;;;;;5093360;28;20020;-64
2023/04/09 20:18:19;;;;;;;15.35;10.13;;;11.20;91.30;;;;;;5092919;28;20023;-64
2023/04/09 20:20:44;;;;;;;15.38;9.88;;;11.20;92.00;;;;;;5094017;28;20022;-63
2023/04/09 20:23:10;;;;;;;17.15;10.02;;;11.10;92.30;;;;;;5092119;28;20040;-63
2023/04/09 20:25:35;;;;;;;16.35;8.93;;;11.00;92.70;;;;;;5094122;28;20016;-64
2023/04/09 20:28:02;;;;;;;15.32;9.75;;;10.90;93.30;;;;;;5093865;28;20028;-63
2023/04/09 20:30:30;;;;;;;17.25;9.65;;;10.70;93.90;;;;;;5093457;28;20020;-64
2023/04/09 20:32:56;;;;;;;16.30;9.75;;;10.70;94.80;;;;;;5093810;28;20020;-63
2023/04/09 20:35:21;;;;;;;16.00;10.23;;;10.60;95.40;;;;;;5093868;28;20024;-63
2023/04/09 20:37:48;;;;;;;16.40;10.00;;;10.60;95.90;;;;;;5093193;28;20515;-63
2023/04/09 20:40:15;;;;;;;15.77;10.32;;;10.60;96.30;;;;;;5093690;28;20377;-63
2023/04/09 20:42:42;;;;;;;17.02;10.35;;;10.50;96.70;;;;;;5093459;28;20032;-63
2023/04/09 20:45:08;;;;;;;16.15;10.18;;;10.50;97.20;;;;;;5092411;28;20380;-63
2023/04/09 20:47:35;;;;;;;17.63;10.48;;;10.40;97.60;;;;;;5093635;28;20431;-63
2023/04/09 20:50:00;;;;;;;15.93;10.10;;;10.40;97.90;;;;;;5092963;28;20100;-63
2023/04/09 20:52:27;;;;;;;18.67;9.82;;;10.40;98.30;;;;;;5092372;28;20119;-63
2023/04/09 20:54:53;;;;;;;15.88;10.55;;;10.40;98.70;;;;;;5093423;28;20023;-63
2023/04/09 20:57:19;;;;;;;19.63;11.80;;;10.30;98.90;;;;;;5093030;28;20476;-64
2023/04/09 20:59:45;;;;;;;20.90;11.50;;;10.30;99.40;;;;;;5092284;28;20016;-63
2023/04/09 21:02:13;;;;;;;17.83;11.63;;;10.30;99.70;;;;;;5092084;28;20060;-64
2023/04/09 21:04:39;;;;;;;20.63;12.70;;;10.20;99.90;;;;;;5092574;28;20035;-63
2023/04/09 21:07:04;;;;;;;21.70;12.00;;;10.20;99.90;;;;;;5092146;28;20016;-64
2023/04/09 21:09:30;;;;;;;22.08;12.50;;;10.10;99.90;;;;;;5093340;28;20059;-64
2023/04/09 21:11:56;;;;;;;24.60;12.75;;;10.00;99.90;;;;;;5092411;28;20125;-64
2023/04/09 21:14:21;;;;;;;23.65;13.32;;;10.00;99.90;;;;;;5093297;28;20430;-63
2023/04/09 21:16:47;;;;;;;22.23;13.73;;;9.90;99.90;;;;;;5093121;28;20076;-63
2023/04/09 21:19:12;;;;;;;22.52;14.35;;;9.90;99.90;;;;;;5091258;28;20017;-63
2023/04/09 21:21:38;;;;;;;20.80;13.30;;;9.80;99.90;;;;;;5092546;28;20024;-64
2023/04/09 21:24:04;;;;;;;33.30;19.35;;;9.80;99.90;;;;;;5093108;28;20468;-64
2023/04/09 21:26:30;;;;;;;32.53;18.05;;;9.80;99.90;;;;;;5092308;28;20024;-63
2023/04/09 21:28:56;;;;;;;28.27;16.60;;;9.70;99.90;;;;;;5091435;28;20031;-63
2023/04/09 21:31:22;;;;;;;22.55;14.00;;;9.70;99.90;;;;;;5093043;28;20020;-63
2023/04/09 21:33:48;;;;;;;21.77;13.38;;;9.70;99.90;;;;;;5091942;28;20048;-63
2023/04/09 21:36:14;;;;;;;19.40;12.60;;;9.60;99.90;;;;;;5093111;28;20440;-63
2023/04/09 21:38:40;;;;;;;15.85;9.95;;;9.50;99.90;;;;;;5092468;28;20024;-63
2023/04/09 21:41:06;;;;;;;16.65;9.90;;;9.40;99.90;;;;;;5092354;28;20024;-63
2023/04/09 21:43:32;;;;;;;16.73;10.27;;;9.20;99.90;;;;;;5092793;28;20115;-63
2023/04/09 21:45:58;;;;;;;15.77;9.40;;;9.20;99.90;;;;;;5092744;28;20111;-63
2023/04/09 21:48:25;;;;;;;18.95;9.90;;;9.10;99.90;;;;;;5090946;28;20491;-63
2023/04/09 21:50:50;;;;;;;16.58;9.55;;;9.00;99.90;;;;;;5092494;28;20024;-63
2023/04/09 21:53:16;;;;;;;19.88;11.63;;;9.00;99.90;;;;;;5092471;28;20084;-63
2023/04/09 21:55:42;;;;;;;17.27;9.77;;;8.90;99.90;;;;;;5092537;28;20020;-63
2023/04/09 21:58:08;;;;;;;16.98;10.18;;;8.80;99.90;;;;;;5092414;28;20543;-63
2023/04/09 22:00:34;;;;;;;16.27;9.55;;;8.80;99.90;;;;;;5092139;28;20027;-63
2023/04/09 22:03:00;;;;;;;19.02;11.27;;;8.70;99.90;;;;;;5092277;28;20392;-63
2023/04/09 22:05:31;;;;;;;19.13;10.63;;;8.70;99.90;;;;;;5092497;28;20024;-63
2023/04/09 22:07:57;;;;;;;20.67;12.20;;;8.60;99.90;;;;;;5091975;28;20034;-63
2023/04/09 22:10:23;;;;;;;21.73;11.15;;;8.60;99.90;;;;;;5092594;28;20103;-63
2023/04/09 22:12:48;;;;;;;19.88;11.73;;;8.60;99.90;;;;;;5092277;28;20024;-63
2023/04/09 22:15:15;;;;;;;20.88;12.82;;;8.60;99.90;;;;;;5091728;28;20024;-63
2023/04/09 22:17:41;;;;;;;19.85;11.77;;;8.60;99.90;;;;;;5092153;28;20415;-63
2023/04/09 22:20:08;;;;;;;22.10;11.90;;;8.60;99.90;;;;;;5092338;28;20024;-63
2023/04/09 22:22:34;;;;;;;22.05;12.32;;;8.70;99.90;;;;;;5091691;28;20044;-63
2023/04/09 22:25:00;;;;;;;23.10;13.25;;;8.60;99.90;;;;;;5092563;28;20077;-63
2023/04/09 22:27:25;;;;;;;21.80;12.35;;;8.60;99.90;;;;;;5092310;28;20090;-63
2023/04/09 22:29:51;;;;;;;22.17;12.35;;;8.40;99.90;;;;;;5089932;28;20027;-64
2023/04/09 22:32:17;;;;;;;16.92;11.38;;;8.40;99.90;;;;;;5092536;28;20020;-64
2023/04/09 22:34:42;;;;;;;18.02;11.20;;;8.40;99.90;;;;;;5092297;28;20024;-65
2023/04/09 22:37:08;;;;;;;19.50;10.98;;;8.30;99.90;;;;;;5091669;28;20024;-65
2023/04/09 22:39:33;;;;;;;16.95;10.18;;;8.30;99.90;;;;;;5092356;28;20028;-64
2023/04/09 22:42:00;;;;;;;17.23;10.75;;;8.30;99.90;;;;;;5092433;28;20036;-65
2023/04/09 22:44:26;;;;;;;18.08;10.43;;;8.20;99.90;;;;;;5091800;28;20016;-64
2023/04/09 22:46:51;;;;;;;21.38;11.30;;;8.30;99.90;;;;;;5090766;28;20031;-64
2023/04/09 22:49:17;;;;;;;20.90;11.07;;;8.20;99.90;;;;;;5092056;28;20024;-64
2023/04/09 22:51:43;;;;;;;18.02;10.77;;;8.20;99.90;;;;;;5091467;28;20052;-64
2023/04/09 22:54:08;;;;;;;19.85;11.77;;;8.20;99.90;;;;;;5092220;28;20016;-64
2023/04/09 22:56:35;;;;;;;18.27;10.98;;;8.20;99.90;;;;;;5091356;28;20476;-65
2023/04/09 22:59:01;;;;;;;21.95;11.90;;;8.10;99.90;;;;;;5091923;28;20441;-65
2023/04/09 23:01:27;;;;;;;20.50;11.05;;;8.00;99.90;;;;;;5092327;28;20062;-65
2023/04/09 23:03:54;;;;;;;19.77;12.15;;;8.00;99.90;;;;;;5091282;28;20095;-65
2023/04/09 23:06:21;;;;;;;17.30;10.60;;;8.00;99.90;;;;;;5092020;28;20024;-64
2023/04/09 23:08:46;;;;;;;15.65;9.93;;;8.00;99.90;;;;;;5092521;28;20395;-65
2023/04/09 23:11:12;;;;;;;18.30;11.35;;;7.90;99.90;;;;;;5095382;28;20039;-65
2023/04/09 23:13:38;;;;;;;19.65;10.82;;;7.90;99.90;;;;;;5095720;28;20043;-65
2023/04/09 23:16:07;;;;;;;20.20;10.63;;;7.90;99.90;;;;;;5095886;28;20514;-65
2023/04/09 23:18:36;;;;;;;15.98;9.98;;;7.90;99.90;;;;;;5095054;28;20472;-64
2023/04/09 23:21:06;;;;;;;16.33;10.00;;;7.90;99.90;;;;;;5095401;28;20060;-65
2023/04/09 23:23:32;;;;;;;19.10;11.00;;;7.90;99.90;;;;;;5095437;28;20039;-65
2023/04/09 23:25:58;;;;;;;22.13;11.63;;;7.90;99.90;;;;;;5094760;28;20039;-65
2023/04/09 23:28:24;;;;;;;22.52;12.90;;;7.90;99.90;;;;;;5095265;28;20028;-64
2023/04/09 23:30:49;;;;;;;21.77;12.35;;;7.90;99.90;;;;;;5093988;28;20024;-65
2023/04/09 23:33:15;;;;;;;22.30;12.88;;;7.90;99.90;;;;;;5094723;28;20024;-65
2023/04/09 23:35:41;;;;;;;21.70;11.88;;;7.90;99.90;;;;;;5095180;28;20543;-65
2023/04/09 23:38:07;;;;;;;23.13;13.10;;;8.00;99.90;;;;;;5095259;28;20024;-65
2023/04/09 23:40:32;;;;;;;25.48;14.60;;;8.00;99.90;;;;;;5093352;28;20020;-64
2023/04/09 23:42:58;;;;;;;25.73;14.50;;;7.90;99.90;;;;;;5093695;28;20031;-65
2023/04/09 23:45:23;;;;;;;23.38;13.85;;;7.90;99.90;;;;;;5095142;28;20024;-65
2023/04/09 23:47:49;;;;;;;26.30;14.40;;;7.90;99.90;;;;;;5094510;28;20462;-65
2023/04/09 23:50:16;;;;;;;22.23;14.52;;;7.90;99.90;;;;;;5095093;28;20091;-65
2023/04/09 23:52:46;;;;;;;23.38;13.77;;;7.90;99.90;;;;;;5095008;28;20415;-65
2023/04/09 23:55:12;;;;;;;26.25;15.13;;;7.90;99.90;;;;;;5094780;28;20077;-65
2023/04/09 23:57:38;;;;;;;23.17;13.98;;;7.90;99.90;;;;;;5094884;28;20027;-64
